Time;durP1;ratioP1;P1;durP2;ratioP2;P2;SDS_P1;SDS_P2;PMS_P1;PMS_P2;Temp;Humidity;BMP_temperature;BMP_pressure;BME280_temperature;BME280_humidity;BME280_pressure;Samples;Min_cycle;Max_cycle;Signal;HPM_P1;HPM_P2
2021/04/18 00:00:38;;;;;;;2.13;1.20;;;20.70;57.40;;;;;;5127456;28;20047;-41
2021/04/18 00:03:04;;;;;;;1.20;1.10;;;20.70;57.40;;;;;;5127553;28;20065;-41
2021/04/18 00:05:30;;;;;;;1.03;0.90;;;20.70;57.50;;;;;;5127009;28;20545;-41
2021/04/18 00:08:03;;;;;;;2.07;1.30;;;20.80;57.50;;;;;;5127348;28;20024;-42
2021/04/18 00:10:33;;;;;;;1.50;1.30;;;20.80;57.50;;;;;;5127337;28;20079;-39
2021/04/18 00:13:00;;;;;;;1.77;1.30;;;20.80;57.60;;;;;;5126576;28;20120;-42
2021/04/18 00:15:26;;;;;;;1.70;1.05;;;20.80;57.60;;;;;;5108442;28;20047;-41
2021/04/18 00:17:52;;;;;;;2.03;1.30;;;20.70;57.60;;;;;;5123486;28;20027;-41
2021/04/18 00:20:19;;;;;;;1.38;1.00;;;20.70;57.50;;;;;;5127043;27;20066;-42
2021/04/18 00:22:45;;;;;;;2.05;1.13;;;20.70;57.40;;;;;;5134294;27;20027;-41
2021/04/18 00:25:12;;;;;;;2.75;1.23;;;20.70;57.40;;;;;;5126657;28;20032;-42
2021/04/18 00:27:38;;;;;;;1.67;1.27;;;20.70;57.60;;;;;;5126882;28;20500;-41
2021/04/18 00:30:09;;;;;;;1.42;0.90;;;20.70;57.60;;;;;;5126795;28;20066;-41
2021/04/18 00:32:35;;;;;;;1.45;1.02;;;20.70;57.70;;;;;;5126715;28;20054;-41
2021/04/18 00:35:01;;;;;;;1.63;1.10;;;20.70;57.50;;;;;;5126159;28;20049;-41
2021/04/18 00:37:27;;;;;;;1.45;1.10;;;20.70;57.60;;;;;;5126838;28;20024;-42
2021/04/18 00:39:54;;;;;;;1.23;1.13;;;20.70;57.40;;;;;;5126796;28;20031;-41
2021/04/18 00:42:20;;;;;;;2.53;1.30;;;20.70;57.10;;;;;;5108178;28;20024;-42
2021/04/18 00:44:46;;;;;;;1.73;1.20;;;20.70;57.20;;;;;;5126282;28;20051;-41
2021/04/18 00:47:13;;;;;;;1.83;1.13;;;20.70;57.20;;;;;;5125989;28;20035;-41
2021/04/18 00:49:39;;;;;;;4.45;1.48;;;20.70;57.00;;;;;;5125415;28;20028;-40
2021/04/18 00:52:05;;;;;;;2.90;1.23;;;20.70;57.20;;;;;;5132761;27;20060;-41
2021/04/18 00:54:31;;;;;;;3.13;0.90;;;20.70;57.20;;;;;;5142464;27;20093;-42
2021/04/18 00:56:58;;;;;;;4.38;1.25;;;20.70;57.40;;;;;;5128398;27;20275;-41
2021/04/18 00:59:24;;;;;;;3.65;1.40;;;20.70;57.40;;;;;;5124908;27;20025;-41
2021/04/18 01:01:50;;;;;;;2.15;1.00;;;20.70;57.50;;;;;;5126305;28;20027;-41
2021/04/18 01:04:16;;;;;;;1.83;1.10;;;20.70;57.40;;;;;;5138433;27;20044;-40
2021/04/18 01:06:42;;;;;;;2.70;1.08;;;20.70;57.50;;;;;;5126130;28;20024;-40
2021/04/18 01:09:08;;;;;;;2.35;0.98;;;20.70;57.50;;;;;;5126088;28;20076;-42
2021/04/18 01:11:34;;;;;;;3.70;1.33;;;20.60;57.50;;;;;;5087197;28;20051;-40
2021/04/18 01:14:01;;;;;;;1.33;1.08;;;20.60;57.50;;;;;;5105690;28;20024;-41
2021/04/18 01:16:27;;;;;;;1.90;1.10;;;20.60;57.40;;;;;;5105445;28;20035;-41
2021/04/18 01:18:53;;;;;;;1.83;1.00;;;20.60;57.40;;;;;;5118295;27;20034;-41
2021/04/18 01:21:21;;;;;;;1.92;1.23;;;20.60;57.30;;;;;;5137160;27;20027;-42
2021/04/18 01:23:47;;;;;;;1.50;1.10;;;20.60;57.30;;;;;;5124517;28;20109;-41
2021/04/18 01:26:14;;;;;;;2.70;1.30;;;20.60;57.20;;;;;;5125426;28;20027;-41
2021/04/18 01:28:41;;;;;;;4.32;1.45;;;20.60;57.10;;;;;;5115483;28;20062;-41
2021/04/18 01:31:07;;;;;;;2.05;1.27;;;20.60;57.10;;;;;;5105483;28;20547;-42
2021/04/18 01:33:34;;;;;;;1.25;1.00;;;20.60;57.00;;;;;;5105187;28;20057;-42
2021/04/18 01:36:01;;;;;;;1.95;1.05;;;20.50;57.00;;;;;;5087067;28;20052;-41
2021/04/18 01:38:28;;;;;;;1.92;1.40;;;20.50;56.90;;;;;;5086971;28;20047;-41
2021/04/18 01:40:54;;;;;;;2.90;1.20;;;20.50;57.00;;;;;;5119880;28;20076;-40
2021/04/18 01:43:20;;;;;;;1.97;1.17;;;20.50;56.90;;;;;;5107329;28;20031;-41
2021/04/18 01:45:47;;;;;;;2.42;1.08;;;20.50;56.80;;;;;;5145163;27;20267;-41
2021/04/18 01:48:14;;;;;;;1.40;1.10;;;20.50;56.80;;;;;;5127917;27;20058;-42
2021/04/18 01:50:41;;;;;;;2.50;1.20;;;20.50;56.70;;;;;;5121656;28;20056;-41
2021/04/18 01:53:07;;;;;;;1.20;1.00;;;20.50;56.70;;;;;;5115842;28;20035;-40
2021/04/18 01:55:34;;;;;;;1.50;1.10;;;20.50;56.80;;;;;;5125013;28;20032;-41
2021/04/18 01:58:00;;;;;;;2.60;1.13;;;20.50;56.70;;;;;;5125330;28;20035;-41
2021/04/18 02:00:26;;;;;;;1.58;1.13;;;20.40;56.60;;;;;;5124887;28;20205;-44
2021/04/18 02:02:52;;;;;;;1.55;1.30;;;20.40;56.70;;;;;;5125838;27;20047;-41
2021/04/18 02:05:19;;;;;;;1.50;1.20;;;20.40;56.60;;;;;;5138644;27;20015;-41
2021/04/18 02:07:45;;;;;;;1.80;1.40;;;20.40;56.60;;;;;;5128015;27;20062;-41
2021/04/18 02:10:11;;;;;;;2.50;1.35;;;20.40;56.70;;;;;;5140768;27;20017;-40
2021/04/18 02:12:37;;;;;;;1.13;1.00;;;20.40;56.70;;;;;;5136597;27;20051;-41
2021/04/18 02:15:05;;;;;;;1.98;1.20;;;20.30;56.70;;;;;;5130831;27;20016;-42
2021/04/18 02:17:31;;;;;;;1.95;0.93;;;20.30;56.70;;;;;;5139383;27;20030;-42
2021/04/18 02:19:57;;;;;;;1.58;1.08;;;20.30;56.70;;;;;;5127997;27;20078;-41
2021/04/18 02:22:23;;;;;;;2.47;1.08;;;20.30;56.80;;;;;;5126507;27;20027;-41
2021/04/18 02:24:49;;;;;;;2.03;1.05;;;20.30;56.80;;;;;;5124599;28;20031;-45
2021/04/18 02:27:16;;;;;;;1.05;0.95;;;20.30;56.80;;;;;;5137620;27;20167;-42
2021/04/18 02:29:42;;;;;;;1.60;1.17;;;20.30;56.80;;;;;;5144484;27;20031;-42
2021/04/18 02:32:08;;;;;;;1.52;1.20;;;20.30;56.90;;;;;;5144578;27;20029;-40
2021/04/18 02:34:34;;;;;;;1.77;1.20;;;20.30;57.00;;;;;;5144934;27;20124;-42
2021/04/18 02:37:00;;;;;;;2.65;1.30;;;20.30;57.00;;;;;;5133476;27;20168;-42
2021/04/18 02:39:27;;;;;;;6.80;1.20;;;20.30;57.60;;;;;;5136709;27;20118;-42
2021/04/18 02:41:53;;;;;;;3.58;1.25;;;20.20;57.40;;;;;;5140162;27;20019;-42
2021/04/18 02:44:19;;;;;;;3.38;1.38;;;20.20;57.40;;;;;;5130618;27;20094;-41
2021/04/18 02:46:45;;;;;;;2.28;1.40;;;20.20;57.40;;;;;;5116918;28;20465;-42
2021/04/18 02:49:12;;;;;;;1.63;1.30;;;20.20;57.30;;;;;;5117980;27;20038;-42
2021/04/18 02:51:39;;;;;;;1.83;1.30;;;20.20;57.20;;;;;;5128869;27;20024;-41
2021/04/18 02:54:06;;;;;;;4.38;1.27;;;20.10;57.20;;;;;;5125058;27;20038;-42
2021/04/18 02:56:32;;;;;;;3.20;1.30;;;20.10;57.20;;;;;;5129538;27;20026;-42
2021/04/18 02:58:58;;;;;;;3.58;1.23;;;20.10;57.20;;;;;;5133282;27;20049;-42
2021/04/18 03:01:24;;;;;;;2.05;1.35;;;20.10;57.20;;;;;;5138431;27;20035;-42
2021/04/18 03:03:50;;;;;;;3.60;0.98;;;20.10;57.30;;;;;;5126780;27;20022;-42
2021/04/18 03:06:16;;;;;;;1.33;1.00;;;20.00;57.20;;;;;;5139247;27;20032;-42
2021/04/18 03:08:43;;;;;;;2.78;1.20;;;20.00;57.20;;;;;;5132256;27;20038;-42
2021/04/18 03:11:09;;;;;;;3.08;1.25;;;20.00;57.20;;;;;;5139469;27;20027;-42
2021/04/18 03:13:36;;;;;;;2.80;1.27;;;20.00;57.20;;;;;;5109175;28;20082;-42
2021/04/18 03:16:02;;;;;;;3.55;1.25;;;20.00;57.30;;;;;;5139284;27;20114;-42
2021/04/18 03:18:28;;;;;;;1.55;1.17;;;20.00;57.30;;;;;;5130202;27;20038;-42
2021/04/18 03:20:54;;;;;;;1.40;1.30;;;20.00;57.30;;;;;;5142923;27;20114;-42
2021/04/18 03:23:21;;;;;;;2.90;1.05;;;19.90;57.30;;;;;;5132519;27;20019;-42
2021/04/18 03:25:47;;;;;;;2.03;1.30;;;20.00;57.30;;;;;;5140340;27;20027;-42
2021/04/18 03:28:13;;;;;;;3.15;1.27;;;19.90;57.30;;;;;;5127476;27;20035;-42
2021/04/18 03:30:39;;;;;;;3.28;1.02;;;19.90;57.30;;;;;;5134553;27;20058;-42
2021/04/18 03:33:05;;;;;;;1.70;1.10;;;19.90;57.30;;;;;;5135007;27;20033;-42
2021/04/18 03:35:32;;;;;;;2.55;1.38;;;19.90;57.30;;;;;;5128296;27;20076;-41
2021/04/18 03:37:58;;;;;;;1.77;1.30;;;19.90;57.40;;;;;;5140306;27;20035;-42
2021/04/18 03:40:24;;;;;;;1.70;1.30;;;19.90;57.40;;;;;;5127737;28;20020;-42
2021/04/18 03:42:50;;;;;;;1.30;1.20;;;19.80;57.40;;;;;;5132334;28;20050;-43
2021/04/18 03:45:17;;;;;;;3.33;1.30;;;19.80;57.40;;;;;;5129953;28;20020;-42
2021/04/18 03:47:44;;;;;;;1.63;1.13;;;19.80;57.50;;;;;;5123193;28;20471;-43
2021/04/18 03:50:14;;;;;;;3.38;1.48;;;19.80;57.50;;;;;;5127400;28;20031;-42
2021/04/18 03:52:40;;;;;;;1.58;1.20;;;19.80;57.50;;;;;;5131077;28;20644;-42
2021/04/18 03:55:07;;;;;;;2.10;1.35;;;19.80;57.50;;;;;;5135214;28;20468;-42
2021/04/18 03:57:33;;;;;;;2.03;1.17;;;19.80;57.50;;;;;;5123628;28;20114;-42
2021/04/18 03:59:59;;;;;;;3.13;1.10;;;19.80;57.60;;;;;;5107959;28;20020;-42
2021/04/18 04:02:25;;;;;;;1.60;1.20;;;19.80;57.60;;;;;;5137366;28;20039;-42
2021/04/18 04:04:51;;;;;;;1.50;1.20;;;19.80;57.60;;;;;;5132768;28;20020;-42
2021/04/18 04:07:17;;;;;;;2.05;1.10;;;19.70;57.50;;;;;;5129847;28;20555;-43
2021/04/18 04:09:43;;;;;;;2.50;1.25;;;19.70;57.60;;;;;;5135846;28;20028;-42
2021/04/18 04:12:10;;;;;;;2.72;1.13;;;19.70;57.60;;;;;;5139248;28;20182;-41
2021/04/18 04:14:36;;;;;;;2.22;1.20;;;19.70;57.60;;;;;;5127194;28;20019;-42
2021/04/18 04:17:02;;;;;;;2.20;1.05;;;19.70;57.60;;;;;;5115938;28;20634;-42
2021/04/18 04:19:28;;;;;;;2.65;1.23;;;19.70;57.70;;;;;;5143552;28;20034;-42
2021/04/18 04:21:54;;;;;;;2.42;1.30;;;19.70;57.70;;;;;;5124962;28;20028;-41
2021/04/18 04:24:21;;;;;;;3.50;1.42;;;19.60;57.60;;;;;;5123018;28;20032;-42
2021/04/18 04:26:47;;;;;;;1.60;1.30;;;19.60;57.70;;;;;;5123128;28;20349;-42
2021/04/18 04:29:13;;;;;;;1.60;1.10;;;19.60;57.70;;;;;;5122825;28;20055;-42
2021/04/18 04:31:39;;;;;;;1.27;1.10;;;19.60;57.70;;;;;;5123318;28;20047;-42
2021/04/18 04:34:05;;;;;;;1.35;1.20;;;19.60;57.70;;;;;;5122906;28;20055;-41
2021/04/18 04:36:31;;;;;;;1.65;1.10;;;19.60;57.70;;;;;;5105060;28;20024;-42
2021/04/18 04:38:58;;;;;;;2.65;1.30;;;19.60;57.80;;;;;;5124293;28;20070;-42
2021/04/18 04:41:24;;;;;;;1.77;1.17;;;19.60;57.80;;;;;;5126788;28;20057;-42
2021/04/18 04:43:50;;;;;;;1.48;1.13;;;19.60;57.80;;;;;;5129685;27;20059;-41
2021/04/18 04:46:16;;;;;;;3.00;1.20;;;19.50;57.80;;;;;;5126738;28;20039;-42
2021/04/18 04:48:42;;;;;;;2.75;1.42;;;19.50;57.80;;;;;;5126738;28;20031;-42
2021/04/18 04:51:09;;;;;;;1.92;1.10;;;19.50;57.70;;;;;;5126161;27;20079;-42
2021/04/18 04:53:35;;;;;;;2.40;1.20;;;19.50;57.80;;;;;;5103698;28;20047;-42
2021/04/18 04:56:01;;;;;;;1.40;1.15;;;19.50;57.80;;;;;;5106259;28;20028;-43
2021/04/18 04:58:27;;;;;;;1.48;1.27;;;19.50;57.80;;;;;;5105830;28;20024;-42
2021/04/18 05:00:53;;;;;;;2.92;1.10;;;19.50;57.80;;;;;;5106201;28;20098;-41
2021/04/18 05:03:24;;;;;;;2.10;1.20;;;19.50;57.90;;;;;;5106208;28;20089;-42
2021/04/18 05:05:50;;;;;;;1.70;1.33;;;19.50;58.00;;;;;;5105749;28;20035;-42
2021/04/18 05:08:17;;;;;;;1.75;1.10;;;19.40;57.90;;;;;;5105846;28;20043;-42
2021/04/18 05:10:43;;;;;;;1.17;1.08;;;19.40;58.00;;;;;;5132378;27;20035;-42
2021/04/18 05:13:09;;;;;;;1.42;1.17;;;19.40;57.90;;;;;;5146722;27;20075;-41
2021/04/18 05:15:35;;;;;;;1.65;1.30;;;19.40;57.90;;;;;;5146412;27;20023;-42
2021/04/18 05:18:03;;;;;;;2.10;1.45;;;19.40;58.00;;;;;;5146935;27;20031;-42
2021/04/18 05:20:29;;;;;;;2.22;1.42;;;19.40;58.00;;;;;;5144726;27;20035;-42
2021/04/18 05:22:55;;;;;;;1.70;1.33;;;19.40;58.00;;;;;;5125526;28;20055;-42
2021/04/18 05:25:21;;;;;;;3.00;1.27;;;19.40;58.00;;;;;;5125822;28;20031;-42
2021/04/18 05:27:47;;;;;;;1.48;1.10;;;19.30;58.00;;;;;;5138776;27;20031;-42
2021/04/18 05:30:14;;;;;;;1.77;0.90;;;19.30;58.00;;;;;;5146499;27;20042;-42
2021/04/18 05:32:40;;;;;;;1.30;1.20;;;19.30;58.10;;;;;;5146521;27;20039;-41
2021/04/18 05:35:07;;;;;;;1.63;1.20;;;19.30;58.10;;;;;;5146132;27;20023;-42
2021/04/18 05:37:33;;;;;;;1.08;0.98;;;19.30;58.20;;;;;;5146461;27;20023;-42
2021/04/18 05:39:59;;;;;;;1.75;1.30;;;19.20;58.10;;;;;;5139269;27;20036;-42
2021/04/18 05:42:25;;;;;;;1.42;1.10;;;19.20;58.10;;;;;;5125413;28;20469;-42
2021/04/18 05:44:52;;;;;;;2.33;1.35;;;19.20;58.20;;;;;;5124513;28;20219;-42
2021/04/18 05:47:18;;;;;;;1.83;1.15;;;19.20;58.20;;;;;;5125379;28;20484;-42
2021/04/18 05:49:44;;;;;;;1.92;1.15;;;19.20;58.10;;;;;;5125508;28;20045;-42
2021/04/18 05:52:10;;;;;;;3.28;1.13;;;19.20;58.10;;;;;;5131382;27;20023;-42
2021/04/18 05:54:37;;;;;;;2.95;1.10;;;19.20;58.20;;;;;;5125233;28;20030;-42
2021/04/18 05:57:03;;;;;;;1.35;1.20;;;19.20;58.30;;;;;;5124963;28;20104;-42
2021/04/18 05:59:29;;;;;;;2.03;1.57;;;19.20;58.20;;;;;;5125408;28;20062;-41
2021/04/18 06:01:55;;;;;;;3.03;1.17;;;19.20;58.20;;;;;;5125285;28;20095;-42
2021/04/18 06:04:22;;;;;;;1.42;1.27;;;19.20;58.30;;;;;;5125181;28;20035;-42
2021/04/18 06:06:48;;;;;;;1.85;1.20;;;19.10;58.20;;;;;;5124954;28;20030;-42
2021/04/18 06:09:14;;;;;;;1.85;1.40;;;19.10;58.20;;;;;;5125812;28;20110;-42
2021/04/18 06:11:40;;;;;;;2.13;1.33;;;19.10;58.30;;;;;;5145103;27;20043;-42
2021/04/18 06:14:06;;;;;;;2.40;1.35;;;19.10;58.40;;;;;;5145586;27;20019;-42
2021/04/18 06:16:32;;;;;;;2.83;1.33;;;19.10;58.40;;;;;;5127696;27;20493;-42
2021/04/18 06:18:59;;;;;;;2.30;1.08;;;19.00;58.40;;;;;;5124998;28;20087;-41
2021/04/18 06:21:25;;;;;;;1.92;1.23;;;19.00;58.30;;;;;;5124893;28;20031;-42
2021/04/18 06:23:51;;;;;;;7.10;1.85;;;19.00;58.40;;;;;;5107818;28;20020;-42
2021/04/18 06:26:17;;;;;;;8.85;2.72;;;19.00;58.30;;;;;;5103897;28;20052;-42
2021/04/18 06:28:43;;;;;;;12.20;2.75;;;19.10;58.30;;;;;;5085846;28;20036;-42
2021/04/18 06:31:09;;;;;;;11.07;2.72;;;19.10;58.30;;;;;;5104233;28;20028;-42
2021/04/18 06:33:36;;;;;;;11.10;2.75;;;19.10;58.30;;;;;;5104159;28;20035;-42
2021/04/18 06:36:02;;;;;;;9.65;2.60;;;19.20;58.40;;;;;;5103787;28;20110;-41
2021/04/18 06:38:29;;;;;;;7.07;2.57;;;19.20;58.40;;;;;;5109282;27;20034;-44
2021/04/18 06:40:55;;;;;;;7.93;2.17;;;19.20;58.40;;;;;;5129476;27;20031;-42
2021/04/18 06:43:22;;;;;;;5.10;2.65;;;19.20;58.40;;;;;;5124441;28;20028;-42
2021/04/18 06:45:54;;;;;;;6.85;2.17;;;19.20;58.40;;;;;;5124235;28;20032;-41
2021/04/18 06:48:20;;;;;;;7.53;2.17;;;19.30;58.40;;;;;;5125677;27;20032;-41
2021/04/18 06:50:47;;;;;;;4.00;1.80;;;19.30;58.50;;;;;;5124020;27;20055;-42
2021/04/18 06:53:13;;;;;;;5.45;2.15;;;19.30;58.50;;;;;;5124340;28;20032;-42
2021/04/18 06:55:39;;;;;;;8.23;2.17;;;19.30;58.50;;;;;;5124027;27;20039;-42
2021/04/18 06:58:06;;;;;;;4.25;1.83;;;19.30;58.50;;;;;;5123647;28;20035;-41
2021/04/18 07:00:32;;;;;;;5.45;1.92;;;19.30;58.50;;;;;;5123817;28;20035;-41
2021/04/18 07:03:12;;;;;;;3.73;1.37;;;19.40;58.60;;;;;;5124020;28;20027;-42
2021/04/18 07:05:48;;;;;;;5.57;1.70;;;19.40;58.60;;;;;;5123996;28;20035;-41
2021/04/18 07:08:20;;;;;;;3.90;1.73;;;19.40;58.60;;;;;;5105096;28;20043;-41
2021/04/18 07:10:46;;;;;;;5.35;1.60;;;19.40;58.60;;;;;;5137756;27;20601;-42
2021/04/18 07:13:14;;;;;;;6.70;1.90;;;19.40;58.60;;;;;;5144184;27;20131;-41
2021/04/18 07:15:42;;;;;;;5.25;1.90;;;19.40;58.60;;;;;;5125849;27;20130;-42
2021/04/18 07:18:08;;;;;;;4.10;1.70;;;19.40;58.60;;;;;;5134049;27;20028;-42
2021/04/18 07:20:46;;;;;;;3.85;1.55;;;19.40;58.60;;;;;;5123656;28;20095;-42
2021/04/18 07:23:25;;;;;;;;;;;19.40;58.60;;;;;;5112443;27;20067;-42
2021/04/18 07:25:52;;;;;;;5.13;1.50;;;19.50;58.70;;;;;;5123602;28;19907;-42
2021/04/18 07:28:23;;;;;;;6.85;1.77;;;19.50;58.70;;;;;;5103057;28;20051;-41
2021/04/18 07:30:50;;;;;;;3.33;1.40;;;19.50;58.70;;;;;;5103471;28;20062;-41
2021/04/18 07:33:16;;;;;;;5.07;1.65;;;19.50;58.70;;;;;;5103217;28;20070;-42
2021/04/18 07:35:43;;;;;;;2.67;1.60;;;19.50;58.70;;;;;;5085047;28;20028;-42
2021/04/18 07:38:25;;;;;;;3.47;1.45;;;19.50;58.70;;;;;;5102895;28;20024;-42
2021/04/18 07:40:53;;;;;;;3.72;1.50;;;19.60;58.80;;;;;;5131915;27;20076;-42
2021/04/18 07:43:19;;;;;;;1.98;1.25;;;19.60;58.80;;;;;;5143670;27;20031;-42
2021/04/18 07:45:46;;;;;;;2.28;1.20;;;19.60;58.70;;;;;;5143762;28;20627;-42
2021/04/18 07:48:14;;;;;;;3.33;1.40;;;19.60;58.80;;;;;;5143514;28;20051;-42
2021/04/18 07:50:43;;;;;;;2.80;1.60;;;19.60;58.70;;;;;;5140167;28;20035;-43
2021/04/18 07:53:10;;;;;;;2.78;1.40;;;19.60;58.70;;;;;;5128847;28;20121;-41
2021/04/18 07:55:36;;;;;;;3.28;1.40;;;19.60;58.70;;;;;;5123429;28;20023;-41
2021/04/18 07:58:03;;;;;;;3.10;1.30;;;19.70;58.70;;;;;;5122822;28;20023;-41
2021/04/18 08:00:29;;;;;;;3.40;1.42;;;19.70;58.70;;;;;;5123071;28;20035;-42
2021/04/18 08:02:56;;;;;;;3.30;1.50;;;19.70;58.80;;;;;;5122951;28;20042;-42
2021/04/18 08:05:26;;;;;;;3.15;1.52;;;19.70;58.80;;;;;;5104992;28;20026;-42
2021/04/18 08:08:08;;;;;;;4.10;1.55;;;19.70;58.70;;;;;;5122816;28;20046;-41
2021/04/18 08:10:42;;;;;;;3.33;1.42;;;19.70;58.70;;;;;;5135067;28;20031;-42
2021/04/18 08:13:16;;;;;;;3.17;1.38;;;19.70;58.70;;;;;;5143329;28;20047;-42
2021/04/18 08:16:04;;;;;;;2.22;1.15;;;19.70;58.70;;;;;;5144581;27;20023;-42
2021/04/18 08:18:42;;;;;;;1.77;1.30;;;19.80;58.70;;;;;;5125080;28;20144;-42
2021/04/18 08:21:41;;;;;;;3.22;1.40;;;19.80;58.70;;;;;;5127055;28;20028;-42
2021/04/18 08:24:19;;;;;;;1.85;1.15;;;19.80;58.70;;;;;;5041322;28;20041;-42
2021/04/18 08:27:03;;;;;;;3.95;1.40;;;19.80;58.60;;;;;;5042670;28;20059;-41
2021/04/18 08:29:29;;;;;;;2.13;1.20;;;19.80;58.70;;;;;;5042908;28;20056;-42
2021/04/18 08:31:57;;;;;;;2.35;1.27;;;19.80;58.60;;;;;;5043056;28;20496;-41
2021/04/18 08:34:29;;;;;;;2.50;1.45;;;19.80;58.60;;;;;;5043243;28;20037;-42
2021/04/18 08:36:59;;;;;;;2.08;1.33;;;19.80;58.60;;;;;;5053442;28;20022;-42
2021/04/18 08:39:25;;;;;;;2.47;1.30;;;19.80;58.60;;;;;;5044302;28;20492;-42
2021/04/18 08:41:56;;;;;;;3.60;1.40;;;19.90;58.70;;;;;;5043341;28;20457;-42
2021/04/18 08:44:27;;;;;;;3.60;1.23;;;19.90;58.70;;;;;;5042924;28;20064;-41
2021/04/18 08:46:59;;;;;;;3.90;1.33;;;19.90;58.60;;;;;;5042914;28;20068;-42
2021/04/18 08:49:57;;;;;;;2.50;1.20;;;19.90;58.60;;;;;;5042738;28;20075;-42
2021/04/18 08:52:24;;;;;;;1.95;1.40;;;19.90;58.50;;;;;;5043735;28;20052;-42
2021/04/18 08:54:51;;;;;;;1.60;1.20;;;19.90;58.50;;;;;;5042871;28;20025;-42
2021/04/18 08:57:31;;;;;;;2.10;1.20;;;19.90;58.50;;;;;;5042587;28;20041;-42
2021/04/18 08:59:59;;;;;;;2.72;1.27;;;19.90;58.50;;;;;;5092781;28;20043;-40
2021/04/18 09:02:25;;;;;;;;;;;19.90;58.50;;;;;;5108449;28;20113;-42
2021/04/18 09:04:54;;;;;;;1.90;1.00;;;19.90;58.50;;;;;;5126224;28;19910;-42
2021/04/18 09:07:24;;;;;;;1.42;1.25;;;19.90;58.50;;;;;;5125961;28;20027;-43
2021/04/18 09:09:50;;;;;;;1.73;1.08;;;19.90;58.50;;;;;;5131554;27;20038;-42
2021/04/18 09:12:17;;;;;;;2.15;1.10;;;19.90;58.50;;;;;;5127436;27;20070;-40
2021/04/18 09:14:45;;;;;;;1.55;1.27;;;20.00;58.50;;;;;;5125835;28;20048;-42
2021/04/18 09:17:22;;;;;;;1.65;1.13;;;20.00;58.50;;;;;;5136483;27;20035;-43
2021/04/18 09:19:54;;;;;;;2.17;1.33;;;20.00;59.00;;;;;;5146311;27;20016;-42
2021/04/18 09:22:22;;;;;;;1.17;1.00;;;20.00;58.40;;;;;;5124101;27;20032;-42
2021/04/18 09:24:51;;;;;;;1.98;1.20;;;20.00;58.40;;;;;;5105458;28;20035;-42
2021/04/18 09:27:18;;;;;;;2.15;1.17;;;20.00;58.40;;;;;;5105129;28;20040;-41
2021/04/18 09:29:58;;;;;;;1.40;1.00;;;20.00;58.50;;;;;;5086586;28;20054;-42
2021/04/18 09:32:31;;;;;;;0.98;0.88;;;20.00;58.40;;;;;;5105138;28;20047;-41
2021/04/18 09:34:58;;;;;;;0.80;0.80;;;20.00;58.40;;;;;;5105182;28;20143;-42
2021/04/18 09:37:27;;;;;;;1.15;1.00;;;20.00;58.40;;;;;;5105223;28;20028;-42
2021/04/18 09:39:58;;;;;;;1.33;1.00;;;20.00;58.30;;;;;;5099292;27;20034;-41
2021/04/18 09:42:24;;;;;;;1.52;1.00;;;20.10;58.40;;;;;;5146044;27;20078;-42
2021/04/18 09:44:53;;;;;;;1.42;1.02;;;20.00;58.40;;;;;;5145826;27;20053;-42
2021/04/18 09:47:27;;;;;;;1.45;0.93;;;20.00;58.30;;;;;;5145642;27;20031;-42
2021/04/18 09:49:55;;;;;;;2.72;0.95;;;20.10;58.40;;;;;;5145593;27;20055;-42
2021/04/18 09:52:30;;;;;;;1.08;0.93;;;20.10;58.40;;;;;;5123462;27;20035;-42
2021/04/18 09:55:10;;;;;;;1.52;1.10;;;20.10;58.30;;;;;;5104660;28;20024;-42
2021/04/18 09:57:56;;;;;;;1.42;0.82;;;20.10;58.30;;;;;;5086724;28;20039;-42
2021/04/18 10:00:36;;;;;;;1.58;0.80;;;20.10;58.30;;;;;;5104292;28;20039;-41
2021/04/18 10:03:02;;;;;;;1.33;1.00;;;20.10;58.30;;;;;;5104611;28;20024;-42
2021/04/18 10:05:29;;;;;;;2.58;0.70;;;20.10;58.30;;;;;;5104583;28;20024;-42
2021/04/18 10:08:18;;;;;;;1.85;1.00;;;20.10;58.30;;;;;;5104356;28;20039;-42
2021/04/18 10:10:50;;;;;;;1.20;0.80;;;20.10;58.20;;;;;;5112999;27;20555;-42
2021/04/18 10:13:41;;;;;;;1.70;1.00;;;20.10;58.30;;;;;;5123167;28;20079;-42
2021/04/18 10:16:07;;;;;;;1.65;1.02;;;20.10;58.20;;;;;;5124642;28;20032;-42
2021/04/18 10:18:34;;;;;;;1.17;0.80;;;20.10;58.30;;;;;;5114428;28;20020;-42
2021/04/18 10:21:19;;;;;;;1.23;0.90;;;20.10;58.20;;;;;;5109180;28;20027;-41
2021/04/18 10:23:46;;;;;;;1.35;1.00;;;20.10;58.20;;;;;;5108562;28;20070;-41
2021/04/18 10:26:15;;;;;;;1.58;0.80;;;20.10;58.20;;;;;;5094890;28;20028;-42
2021/04/18 10:28:41;;;;;;;2.05;1.10;;;20.10;58.20;;;;;;5083618;28;20077;-46
2021/04/18 10:31:07;;;;;;;4.00;0.95;;;20.20;58.20;;;;;;5098289;28;20020;-42
2021/04/18 10:33:33;;;;;;;1.20;0.88;;;20.20;58.10;;;;;;5124366;28;20043;-42
2021/04/18 10:35:59;;;;;;;1.08;0.98;;;20.20;58.20;;;;;;5124187;28;20019;-40
2021/04/18 10:38:26;;;;;;;1.20;1.00;;;20.20;58.20;;;;;;5123754;28;20559;-42
2021/04/18 10:40:52;;;;;;;1.13;1.00;;;20.20;58.20;;;;;;5109839;28;20024;-42
2021/04/18 10:43:18;;;;;;;1.60;0.88;;;20.20;58.20;;;;;;5103683;28;20047;-42
2021/04/18 10:45:44;;;;;;;1.23;0.95;;;20.20;58.10;;;;;;5103608;28;20435;-42
2021/04/18 10:48:10;;;;;;;0.93;0.80;;;20.20;58.10;;;;;;5103365;28;20036;-42
2021/04/18 10:50:37;;;;;;;0.98;0.88;;;20.20;58.10;;;;;;5103793;28;20016;-42
2021/04/18 10:53:03;;;;;;;1.00;0.90;;;20.20;58.10;;;;;;5093488;28;20032;-42
2021/04/18 10:55:29;;;;;;;1.30;1.02;;;20.20;58.10;;;;;;5097954;28;20038;-42
2021/04/18 10:57:55;;;;;;;1.30;1.00;;;20.20;58.10;;;;;;5103063;28;20027;-41
2021/04/18 11:00:23;;;;;;;1.67;1.00;;;20.20;58.10;;;;;;5103241;28;20045;-42
2021/04/18 11:02:49;;;;;;;1.42;1.00;;;20.20;58.10;;;;;;5103608;28;20039;-42
2021/04/18 11:05:15;;;;;;;1.23;0.90;;;20.20;58.10;;;;;;5103382;28;20106;-42
2021/04/18 11:07:41;;;;;;;1.23;0.95;;;20.20;58.10;;;;;;5102878;28;20036;-41
2021/04/18 11:10:08;;;;;;;1.30;1.13;;;20.20;58.00;;;;;;5110896;28;20452;-42
2021/04/18 11:12:35;;;;;;;0.88;0.80;;;20.30;58.10;;;;;;5113851;28;20066;-41
2021/04/18 11:15:01;;;;;;;0.67;0.67;;;20.20;58.00;;;;;;5141348;27;20045;-42
2021/04/18 11:17:27;;;;;;;0.95;0.82;;;20.30;58.10;;;;;;5143826;27;20031;-42
2021/04/18 11:19:53;;;;;;;0.90;0.70;;;20.20;58.00;;;;;;5144144;27;20023;-42
2021/04/18 11:22:20;;;;;;;1.05;0.85;;;20.30;58.00;;;;;;5140574;27;20043;-43
2021/04/18 11:24:47;;;;;;;1.67;0.85;;;20.30;58.10;;;;;;5122444;27;20035;-41
2021/04/18 11:27:13;;;;;;;0.75;0.60;;;20.30;58.00;;;;;;5124247;27;20035;-42
2021/04/18 11:29:40;;;;;;;1.40;0.93;;;20.30;58.00;;;;;;5116577;27;20028;-41
2021/04/18 11:32:06;;;;;;;;;;;20.30;58.00;;;;;;5123895;27;20028;-41
2021/04/18 11:34:32;;;;;;;0.70;0.70;;;20.30;58.00;;;;;;5128884;27;19903;-41
2021/04/18 11:36:58;;;;;;;1.42;0.80;;;20.30;58.10;;;;;;5129140;27;20113;-41
2021/04/18 11:39:25;;;;;;;0.88;0.70;;;20.30;58.00;;;;;;5124391;27;20111;-41
2021/04/18 11:41:51;;;;;;;1.35;0.90;;;20.30;58.00;;;;;;5124601;27;20780;-42
2021/04/18 11:44:17;;;;;;;0.80;0.77;;;20.30;58.00;;;;;;5119920;27;20423;-42
2021/04/18 11:46:44;;;;;;;1.17;0.93;;;20.30;58.00;;;;;;5128111;28;20048;-41
2021/04/18 11:49:11;;;;;;;2.10;0.90;;;20.30;58.00;;;;;;5129644;27;20047;-42
2021/04/18 11:51:40;;;;;;;0.80;0.80;;;20.30;58.00;;;;;;5122803;28;20268;-42
2021/04/18 11:54:07;;;;;;;0.98;0.88;;;20.30;57.90;;;;;;5122408;28;20032;-42
2021/04/18 11:56:33;;;;;;;1.00;0.90;;;20.30;57.90;;;;;;5123063;28;20059;-42
2021/04/18 11:58:59;;;;;;;0.93;0.88;;;20.30;57.90;;;;;;5122732;28;20020;-41
2021/04/18 12:01:26;;;;;;;1.73;0.90;;;20.30;58.00;;;;;;5123118;28;20031;-41
2021/04/18 12:03:52;;;;;;;0.90;0.80;;;20.30;58.10;;;;;;5123114;28;20707;-42
2021/04/18 12:06:18;;;;;;;1.85;0.90;;;20.30;58.10;;;;;;5123095;28;20030;-42
2021/04/18 12:08:44;;;;;;;1.30;1.20;;;20.20;58.10;;;;;;5122629;28;20040;-42
2021/04/18 12:11:11;;;;;;;1.42;1.00;;;20.20;58.10;;;;;;5140043;28;20030;-42
2021/04/18 12:13:37;;;;;;;2.17;0.93;;;20.20;58.10;;;;;;5143179;28;20190;-42
2021/04/18 12:16:03;;;;;;;2.80;1.15;;;20.20;58.20;;;;;;5143320;28;20042;-41
2021/04/18 12:18:29;;;;;;;0.80;0.80;;;20.10;58.20;;;;;;5143155;28;20090;-42
2021/04/18 12:20:56;;;;;;;1.30;0.80;;;20.10;58.20;;;;;;5125496;28;20264;-42
2021/04/18 12:23:22;;;;;;;1.20;1.00;;;20.10;58.20;;;;;;5130083;28;20058;-42
2021/04/18 12:25:48;;;;;;;2.55;0.90;;;20.00;58.20;;;;;;5129549;28;20511;-40
2021/04/18 12:28:14;;;;;;;1.98;1.20;;;20.00;58.20;;;;;;5131296;28;20042;-41
2021/04/18 12:30:40;;;;;;;1.27;1.00;;;20.00;58.20;;;;;;5130943;28;20024;-42
2021/04/18 12:33:07;;;;;;;1.00;0.90;;;20.00;58.20;;;;;;5129328;28;20126;-41
2021/04/18 12:35:33;;;;;;;1.33;0.90;;;19.90;58.20;;;;;;5129629;28;20024;-41
2021/04/18 12:37:59;;;;;;;1.17;1.00;;;19.90;58.20;;;;;;5111874;28;20049;-41
2021/04/18 12:40:25;;;;;;;1.08;0.98;;;19.90;58.20;;;;;;5130137;28;20023;-41
2021/04/18 12:42:51;;;;;;;2.38;0.90;;;19.90;58.20;;;;;;5137025;28;20028;-42
2021/04/18 12:45:18;;;;;;;1.10;0.80;;;19.90;58.20;;;;;;5132198;28;21540;-42
2021/04/18 12:47:45;;;;;;;1.20;0.82;;;19.80;58.20;;;;;;5114960;28;20028;-41
2021/04/18 12:50:12;;;;;;;1.52;1.00;;;19.80;58.20;;;;;;5132206;28;20024;-42